sensor_id;sensor_type;location;lat;lon;timestamp;temperature;humidity
28845;DHT22;15976;47.938;7.758;2023-10-09T00:02:09;14.90;64.60
28845;DHT22;15976;47.938;7.758;2023-10-09T00:04:37;14.90;64.70
28845;DHT22;15976;47.938;7.758;2023-10-09T00:07:05;14.90;64.70
28845;DHT22;15976;47.938;7.758;2023-10-09T00:09:35;14.80;64.50
28845;DHT22;15976;47.938;7.758;2023-10-09T00:12:29;14.80;64.50
28845;DHT22;15976;47.938;7.758;2023-10-09T00:14:56;14.80;64.40
28845;DHT22;15976;47.938;7.758;2023-10-09T00:17:26;14.80;64.70
28845;DHT22;15976;47.938;7.758;2023-10-09T00:19:58;14.80;64.80
28845;DHT22;15976;47.938;7.758;2023-10-09T00:22:27;14.80;64.90
28845;DHT22;15976;47.938;7.758;2023-10-09T00:24:57;14.70;64.90
28845;DHT22;15976;47.938;7.758;2023-10-09T00:27:44;14.70;65.00
28845;DHT22;15976;47.938;7.758;2023-10-09T00:30:14;14.60;65.10
28845;DHT22;15976;47.938;7.758;2023-10-09T00:32:57;14.60;65.30
28845;DHT22;15976;47.938;7.758;2023-10-09T00:35:38;14.50;65.30
28845;DHT22;15976;47.938;7.758;2023-10-09T00:38:21;14.50;65.30
28845;DHT22;15976;47.938;7.758;2023-10-09T00:40:50;14.50;65.40
28845;DHT22;15976;47.938;7.758;2023-10-09T00:43:51;14.50;65.60
28845;DHT22;15976;47.938;7.758;2023-10-09T00:46:21;14.40;65.70
28845;DHT22;15976;47.938;7.758;2023-10-09T00:48:59;14.40;65.80
28845;DHT22;15976;47.938;7.758;2023-10-09T00:51:30;14.40;66.10
28845;DHT22;15976;47.938;7.758;2023-10-09T00:54:05;14.40;66.10
28845;DHT22;15976;47.938;7.758;2023-10-09T00:56:42;14.30;66.20
28845;DHT22;15976;47.938;7.758;2023-10-09T00:59:19;14.30;66.20
28845;DHT22;15976;47.938;7.758;2023-10-09T01:01:49;14.30;66.40
28845;DHT22;15976;47.938;7.758;2023-10-09T01:04:31;14.30;67.30
28845;DHT22;15976;47.938;7.758;2023-10-09T01:07:04;14.30;66.70
28845;DHT22;15976;47.938;7.758;2023-10-09T01:09:37;14.20;66.80
28845;DHT22;15976;47.938;7.758;2023-10-09T01:12:05;14.20;66.90
28845;DHT22;15976;47.938;7.758;2023-10-09T01:14:32;14.20;66.90
28845;DHT22;15976;47.938;7.758;2023-10-09T01:17:08;14.20;66.90
28845;DHT22;15976;47.938;7.758;2023-10-09T01:19:36;14.10;66.80
28845;DHT22;15976;47.938;7.758;2023-10-09T01:22:03;14.10;66.80
28845;DHT22;15976;47.938;7.758;2023-10-09T01:24:41;14.10;66.80
28845;DHT22;15976;47.938;7.758;2023-10-09T01:27:08;14.10;66.80
28845;DHT22;15976;47.938;7.758;2023-10-09T01:29:43;14.00;66.80
28845;DHT22;15976;47.938;7.758;2023-10-09T01:32:11;14.00;66.90
28845;DHT22;15976;47.938;7.758;2023-10-09T01:34:44;14.00;67.00
28845;DHT22;15976;47.938;7.758;2023-10-09T01:37:20;14.00;67.00
28845;DHT22;15976;47.938;7.758;2023-10-09T01:39:59;14.00;67.90
28845;DHT22;15976;47.938;7.758;2023-10-09T01:42:46;14.00;67.10
28845;DHT22;15976;47.938;7.758;2023-10-09T01:45:14;14.00;67.10
28845;DHT22;15976;47.938;7.758;2023-10-09T01:47:47;14.00;67.20
28845;DHT22;15976;47.938;7.758;2023-10-09T01:50:25;14.00;67.20
28845;DHT22;15976;47.938;7.758;2023-10-09T01:52:58;13.90;67.40
28845;DHT22;15976;47.938;7.758;2023-10-09T01:55:32;13.90;67.40
28845;DHT22;15976;47.938;7.758;2023-10-09T01:58:07;13.90;67.50
28845;DHT22;15976;47.938;7.758;2023-10-09T02:00:54;13.80;67.40
28845;DHT22;15976;47.938;7.758;2023-10-09T02:03:23;13.80;67.50
28845;DHT22;15976;47.938;7.758;2023-10-09T02:05:52;13.80;67.60
28845;DHT22;15976;47.938;7.758;2023-10-09T02:08:30;13.80;67.70
28845;DHT22;15976;47.938;7.758;2023-10-09T02:10:57;13.80;67.80
28845;DHT22;15976;47.938;7.758;2023-10-09T02:13:24;13.80;67.90
28845;DHT22;15976;47.938;7.758;2023-10-09T02:15:58;13.80;68.00
28845;DHT22;15976;47.938;7.758;2023-10-09T02:18:40;13.80;68.10
28845;DHT22;15976;47.938;7.758;2023-10-09T02:21:20;13.80;68.20
28845;DHT22;15976;47.938;7.758;2023-10-09T02:24:02;13.70;68.20
28845;DHT22;15976;47.938;7.758;2023-10-09T02:26:33;13.70;68.30
28845;DHT22;15976;47.938;7.758;2023-10-09T02:29:06;13.70;68.40
28845;DHT22;15976;47.938;7.758;2023-10-09T02:31:45;13.70;68.50
28845;DHT22;15976;47.938;7.758;2023-10-09T02:34:18;13.70;68.60
28845;DHT22;15976;47.938;7.758;2023-10-09T02:36:49;13.60;68.60
28845;DHT22;15976;47.938;7.758;2023-10-09T02:39:16;13.60;68.80
28845;DHT22;15976;47.938;7.758;2023-10-09T02:41:57;13.60;68.80
28845;DHT22;15976;47.938;7.758;2023-10-09T02:44:48;13.60;68.90
28845;DHT22;15976;47.938;7.758;2023-10-09T02:47:19;13.60;69.00
28845;DHT22;15976;47.938;7.758;2023-10-09T02:49:58;13.60;69.10
28845;DHT22;15976;47.938;7.758;2023-10-09T02:52:34;13.60;69.20
28845;DHT22;15976;47.938;7.758;2023-10-09T02:55:07;13.60;69.10
28845;DHT22;15976;47.938;7.758;2023-10-09T02:57:40;13.60;69.20
28845;DHT22;15976;47.938;7.758;2023-10-09T03:00:09;13.60;69.40
28845;DHT22;15976;47.938;7.758;2023-10-09T03:02:36;13.60;69.50
28845;DHT22;15976;47.938;7.758;2023-10-09T03:05:07;13.50;69.50
28845;DHT22;15976;47.938;7.758;2023-10-09T03:07:39;13.50;69.60
28845;DHT22;15976;47.938;7.758;2023-10-09T03:10:09;13.50;69.70
28845;DHT22;15976;47.938;7.758;2023-10-09T03:12:37;13.50;69.80
28845;DHT22;15976;47.938;7.758;2023-10-09T03:15:06;13.50;69.90
28845;DHT22;15976;47.938;7.758;2023-10-09T03:17:36;13.50;70.00
28845;DHT22;15976;47.938;7.758;2023-10-09T03:20:04;13.50;70.10
28845;DHT22;15976;47.938;7.758;2023-10-09T03:22:39;13.50;70.20
28845;DHT22;15976;47.938;7.758;2023-10-09T03:25:07;13.50;70.30
28845;DHT22;15976;47.938;7.758;2023-10-09T03:27:48;13.40;70.20
28845;DHT22;15976;47.938;7.758;2023-10-09T03:30:16;13.40;70.30
28845;DHT22;15976;47.938;7.758;2023-10-09T03:32:44;13.50;70.50
28845;DHT22;15976;47.938;7.758;2023-10-09T03:35:21;13.40;70.40
28845;DHT22;15976;47.938;7.758;2023-10-09T03:37:54;13.40;70.40
28845;DHT22;15976;47.938;7.758;2023-10-09T03:40:27;13.40;71.20
28845;DHT22;15976;47.938;7.758;2023-10-09T03:42:55;13.40;70.40
28845;DHT22;15976;47.938;7.758;2023-10-09T03:45:22;13.40;70.40
28845;DHT22;15976;47.938;7.758;2023-10-09T03:47:54;13.30;70.40
28845;DHT22;15976;47.938;7.758;2023-10-09T03:50:42;13.30;70.70
28845;DHT22;15976;47.938;7.758;2023-10-09T03:53:10;13.30;70.80
28845;DHT22;15976;47.938;7.758;2023-10-09T03:55:39;13.30;70.80
28845;DHT22;15976;47.938;7.758;2023-10-09T03:58:07;13.30;70.90
28845;DHT22;15976;47.938;7.758;2023-10-09T04:00:34;13.20;70.90
28845;DHT22;15976;47.938;7.758;2023-10-09T04:03:14;13.20;71.00
28845;DHT22;15976;47.938;7.758;2023-10-09T04:05:42;13.20;71.20
28845;DHT22;15976;47.938;7.758;2023-10-09T04:08:11;13.20;71.20
28845;DHT22;15976;47.938;7.758;2023-10-09T04:10:47;13.20;71.30
28845;DHT22;15976;47.938;7.758;2023-10-09T04:13:24;13.20;71.30
28845;DHT22;15976;47.938;7.758;2023-10-09T04:16:03;13.20;71.30
28845;DHT22;15976;47.938;7.758;2023-10-09T04:18:53;13.20;71.50
28845;DHT22;15976;47.938;7.758;2023-10-09T04:21:23;13.20;71.50
28845;DHT22;15976;47.938;7.758;2023-10-09T04:23:56;13.10;71.30
28845;DHT22;15976;47.938;7.758;2023-10-09T04:26:55;13.10;71.50
28845;DHT22;15976;47.938;7.758;2023-10-09T04:29:23;13.10;71.50
28845;DHT22;15976;47.938;7.758;2023-10-09T04:31:56;13.10;71.60
28845;DHT22;15976;47.938;7.758;2023-10-09T04:34:24;13.10;71.80
28845;DHT22;15976;47.938;7.758;2023-10-09T04:37:04;13.10;71.70
28845;DHT22;15976;47.938;7.758;2023-10-09T04:39:41;13.10;71.70
28845;DHT22;15976;47.938;7.758;2023-10-09T04:42:15;13.10;71.70
28845;DHT22;15976;47.938;7.758;2023-10-09T04:44:51;13.10;71.80
28845;DHT22;15976;47.938;7.758;2023-10-09T04:47:34;13.10;71.90
28845;DHT22;15976;47.938;7.758;2023-10-09T04:50:05;13.10;71.90
28845;DHT22;15976;47.938;7.758;2023-10-09T04:52:36;13.00;71.90
28845;DHT22;15976;47.938;7.758;2023-10-09T04:55:03;13.00;72.00
28845;DHT22;15976;47.938;7.758;2023-10-09T05:00:15;13.00;72.20
28845;DHT22;15976;47.938;7.758;2023-10-09T05:02:53;13.00;72.20
28845;DHT22;15976;47.938;7.758;2023-10-09T05:05:26;13.00;72.30
28845;DHT22;15976;47.938;7.758;2023-10-09T05:08:18;13.00;72.40
28845;DHT22;15976;47.938;7.758;2023-10-09T05:10:51;13.00;72.50
28845;DHT22;15976;47.938;7.758;2023-10-09T05:13:41;13.00;72.40
28845;DHT22;15976;47.938;7.758;2023-10-09T05:16:17;13.00;72.40
28845;DHT22;15976;47.938;7.758;2023-10-09T05:18:54;13.00;73.40
28845;DHT22;15976;47.938;7.758;2023-10-09T05:21:49;12.90;72.50
28845;DHT22;15976;47.938;7.758;2023-10-09T05:24:16;13.00;72.60
28845;DHT22;15976;47.938;7.758;2023-10-09T05:26:47;12.90;72.60
28845;DHT22;15976;47.938;7.758;2023-10-09T05:29:20;12.90;72.60
28845;DHT22;15976;47.938;7.758;2023-10-09T05:32:06;12.90;72.70
28845;DHT22;15976;47.938;7.758;2023-10-09T05:34:40;12.90;72.80
28845;DHT22;15976;47.938;7.758;2023-10-09T05:37:27;12.90;72.90
28845;DHT22;15976;47.938;7.758;2023-10-09T05:40:05;12.90;72.90
28845;DHT22;15976;47.938;7.758;2023-10-09T05:42:46;12.90;73.00
28845;DHT22;15976;47.938;7.758;2023-10-09T05:45:25;12.90;73.10
28845;DHT22;15976;47.938;7.758;2023-10-09T05:48:11;12.90;73.10
28845;DHT22;15976;47.938;7.758;2023-10-09T05:50:44;12.90;73.00
28845;DHT22;15976;47.938;7.758;2023-10-09T05:53:46;12.90;73.10
28845;DHT22;15976;47.938;7.758;2023-10-09T05:56:13;12.90;73.10
28845;DHT22;15976;47.938;7.758;2023-10-09T05:59:03;12.80;73.00
28845;DHT22;15976;47.938;7.758;2023-10-09T06:01:33;12.90;73.10
28845;DHT22;15976;47.938;7.758;2023-10-09T06:04:19;12.90;73.20
28845;DHT22;15976;47.938;7.758;2023-10-09T06:06:47;13.00;73.30
28845;DHT22;15976;47.938;7.758;2023-10-09T06:09:23;13.00;73.20
28845;DHT22;15976;47.938;7.758;2023-10-09T06:12:10;13.10;73.10
28845;DHT22;15976;47.938;7.758;2023-10-09T06:15:03;13.10;73.00
28845;DHT22;15976;47.938;7.758;2023-10-09T06:17:51;13.20;72.80
28845;DHT22;15976;47.938;7.758;2023-10-09T06:20:18;13.20;72.70
28845;DHT22;15976;47.938;7.758;2023-10-09T06:23:04;13.20;72.60
28845;DHT22;15976;47.938;7.758;2023-10-09T06:25:45;13.20;72.70
28845;DHT22;15976;47.938;7.758;2023-10-09T06:28:19;13.30;72.80
28845;DHT22;15976;47.938;7.758;2023-10-09T06:30:59;13.30;72.70
28845;DHT22;15976;47.938;7.758;2023-10-09T06:33:46;13.40;72.60
28845;DHT22;15976;47.938;7.758;2023-10-09T06:36:42;13.40;72.60
28845;DHT22;15976;47.938;7.758;2023-10-09T06:39:20;13.40;72.50
28845;DHT22;15976;47.938;7.758;2023-10-09T06:42:16;13.50;72.40
28845;DHT22;15976;47.938;7.758;2023-10-09T06:47:51;13.60;72.40
28845;DHT22;15976;47.938;7.758;2023-10-09T06:50:37;13.60;72.30
28845;DHT22;15976;47.938;7.758;2023-10-09T06:53:22;13.60;72.40
28845;DHT22;15976;47.938;7.758;2023-10-09T06:55:55;13.70;72.50
28845;DHT22;15976;47.938;7.758;2023-10-09T06:58:32;13.70;72.50
28845;DHT22;15976;47.938;7.758;2023-10-09T07:01:09;13.70;72.50
28845;DHT22;15976;47.938;7.758;2023-10-09T07:04:09;13.70;72.70
28845;DHT22;15976;47.938;7.758;2023-10-09T07:06:49;13.70;72.70
28845;DHT22;15976;47.938;7.758;2023-10-09T07:09:18;13.80;72.80
28845;DHT22;15976;47.938;7.758;2023-10-09T07:11:49;13.80;72.80
28845;DHT22;15976;47.938;7.758;2023-10-09T07:17:00;14.00;72.90
28845;DHT22;15976;47.938;7.758;2023-10-09T07:19:28;14.10;72.80
28845;DHT22;15976;47.938;7.758;2023-10-09T07:22:01;14.20;72.50
28845;DHT22;15976;47.938;7.758;2023-10-09T07:24:42;14.40;72.90
28845;DHT22;15976;47.938;7.758;2023-10-09T07:27:10;14.60;73.00
28845;DHT22;15976;47.938;7.758;2023-10-09T07:29:41;15.30;71.80
28845;DHT22;15976;47.938;7.758;2023-10-09T07:32:17;16.20;69.30
28845;DHT22;15976;47.938;7.758;2023-10-09T07:34:48;17.10;66.30
28845;DHT22;15976;47.938;7.758;2023-10-09T07:37:28;17.90;63.60
28845;DHT22;15976;47.938;7.758;2023-10-09T07:40:05;18.50;61.70
28845;DHT22;15976;47.938;7.758;2023-10-09T07:42:35;19.10;59.90
28845;DHT22;15976;47.938;7.758;2023-10-09T07:45:08;19.60;58.60
28845;DHT22;15976;47.938;7.758;2023-10-09T07:47:48;19.90;57.90
28845;DHT22;15976;47.938;7.758;2023-10-09T07:50:36;20.20;56.90
28845;DHT22;15976;47.938;7.758;2023-10-09T07:53:16;19.90;57.30
28845;DHT22;15976;47.938;7.758;2023-10-09T07:55:53;19.50;58.50
28845;DHT22;15976;47.938;7.758;2023-10-09T07:58:33;19.10;59.20
28845;DHT22;15976;47.938;7.758;2023-10-09T08:01:13;18.80;59.60
28845;DHT22;15976;47.938;7.758;2023-10-09T08:04:04;18.60;59.90
28845;DHT22;15976;47.938;7.758;2023-10-09T08:06:38;18.50;60.50
28845;DHT22;15976;47.938;7.758;2023-10-09T08:09:06;18.50;60.70
28845;DHT22;15976;47.938;7.758;2023-10-09T08:11:49;18.40;60.70
28845;DHT22;15976;47.938;7.758;2023-10-09T08:14:35;18.50;60.70
28845;DHT22;15976;47.938;7.758;2023-10-09T08:17:01;18.50;61.00
28845;DHT22;15976;47.938;7.758;2023-10-09T08:19:51;18.50;61.00
28845;DHT22;15976;47.938;7.758;2023-10-09T08:22:30;18.60;61.20
28845;DHT22;15976;47.938;7.758;2023-10-09T08:24:57;18.60;61.20
28845;DHT22;15976;47.938;7.758;2023-10-09T08:27:29;18.70;61.00
28845;DHT22;15976;47.938;7.758;2023-10-09T08:30:04;18.70;59.90
28845;DHT22;15976;47.938;7.758;2023-10-09T08:32:51;18.80;59.90
28845;DHT22;15976;47.938;7.758;2023-10-09T08:35:37;18.80;59.80
28845;DHT22;15976;47.938;7.758;2023-10-09T08:38:18;18.90;59.70
28845;DHT22;15976;47.938;7.758;2023-10-09T08:40:52;18.90;59.80
28845;DHT22;15976;47.938;7.758;2023-10-09T08:43:25;18.90;60.00
28845;DHT22;15976;47.938;7.758;2023-10-09T08:45:56;18.90;60.10
28845;DHT22;15976;47.938;7.758;2023-10-09T08:48:30;19.00;60.30
28845;DHT22;15976;47.938;7.758;2023-10-09T08:50:57;19.00;60.30
28845;DHT22;15976;47.938;7.758;2023-10-09T08:53:25;19.00;60.80
28845;DHT22;15976;47.938;7.758;2023-10-09T08:55:55;19.10;61.50
28845;DHT22;15976;47.938;7.758;2023-10-09T08:58:24;19.20;61.70
28845;DHT22;15976;47.938;7.758;2023-10-09T09:01:04;19.30;61.70
28845;DHT22;15976;47.938;7.758;2023-10-09T09:03:42;19.30;61.50
28845;DHT22;15976;47.938;7.758;2023-10-09T09:06:12;19.50;61.80
28845;DHT22;15976;47.938;7.758;2023-10-09T09:08:43;19.60;61.80
28845;DHT22;15976;47.938;7.758;2023-10-09T09:11:19;19.70;61.70
28845;DHT22;15976;47.938;7.758;2023-10-09T09:14:01;19.80;61.30
28845;DHT22;15976;47.938;7.758;2023-10-09T09:16:45;19.80;61.50
28845;DHT22;15976;47.938;7.758;2023-10-09T09:19:15;20.00;61.70
28845;DHT22;15976;47.938;7.758;2023-10-09T09:21:50;20.10;61.60
28845;DHT22;15976;47.938;7.758;2023-10-09T09:24:22;20.20;61.20
28845;DHT22;15976;47.938;7.758;2023-10-09T09:26:50;20.40;60.80
28845;DHT22;15976;47.938;7.758;2023-10-09T09:32:05;20.90;59.20
28845;DHT22;15976;47.938;7.758;2023-10-09T09:34:49;21.10;58.80
28845;DHT22;15976;47.938;7.758;2023-10-09T09:37:24;21.20;57.90
28845;DHT22;15976;47.938;7.758;2023-10-09T09:39:59;21.40;56.80
28845;DHT22;15976;47.938;7.758;2023-10-09T09:42:46;21.60;55.40
28845;DHT22;15976;47.938;7.758;2023-10-09T09:45:15;21.80;54.60
28845;DHT22;15976;47.938;7.758;2023-10-09T09:47:44;21.90;54.30
28845;DHT22;15976;47.938;7.758;2023-10-09T09:50:19;22.20;53.70
28845;DHT22;15976;47.938;7.758;2023-10-09T09:52:54;22.50;53.20
28845;DHT22;15976;47.938;7.758;2023-10-09T09:55:25;22.80;51.90
28845;DHT22;15976;47.938;7.758;2023-10-09T09:57:58;23.20;51.30
28845;DHT22;15976;47.938;7.758;2023-10-09T10:00:29;23.50;50.20
28845;DHT22;15976;47.938;7.758;2023-10-09T10:03:03;23.70;49.60
28845;DHT22;15976;47.938;7.758;2023-10-09T10:05:34;24.00;48.60
28845;DHT22;15976;47.938;7.758;2023-10-09T10:08:02;24.20;48.30
28845;DHT22;15976;47.938;7.758;2023-10-09T10:13:05;24.40;46.80
28845;DHT22;15976;47.938;7.758;2023-10-09T10:16:04;24.50;46.60
28845;DHT22;15976;47.938;7.758;2023-10-09T10:18:57;24.50;46.60
28845;DHT22;15976;47.938;7.758;2023-10-09T10:21:34;24.60;46.50
28845;DHT22;15976;47.938;7.758;2023-10-09T10:29:38;24.70;45.60
28845;DHT22;15976;47.938;7.758;2023-10-09T10:32:08;24.70;45.60
28845;DHT22;15976;47.938;7.758;2023-10-09T10:34:53;24.80;44.80
28845;DHT22;15976;47.938;7.758;2023-10-09T10:37:37;24.90;44.60
28845;DHT22;15976;47.938;7.758;2023-10-09T10:40:10;24.90;44.60
28845;DHT22;15976;47.938;7.758;2023-10-09T10:42:56;25.10;44.90
28845;DHT22;15976;47.938;7.758;2023-10-09T10:45:43;25.20;44.50
28845;DHT22;15976;47.938;7.758;2023-10-09T10:48:11;25.40;44.00
28845;DHT22;15976;47.938;7.758;2023-10-09T10:51:04;25.40;44.10
28845;DHT22;15976;47.938;7.758;2023-10-09T10:53:32;25.60;44.50
28845;DHT22;15976;47.938;7.758;2023-10-09T10:56:15;25.60;44.60
28845;DHT22;15976;47.938;7.758;2023-10-09T10:58:43;25.60;44.10
28845;DHT22;15976;47.938;7.758;2023-10-09T11:01:33;25.60;44.00
28845;DHT22;15976;47.938;7.758;2023-10-09T11:04:20;25.60;43.80
28845;DHT22;15976;47.938;7.758;2023-10-09T11:07:02;25.70;43.80
28845;DHT22;15976;47.938;7.758;2023-10-09T11:12:46;25.70;43.20
28845;DHT22;15976;47.938;7.758;2023-10-09T11:15:36;25.70;43.40
28845;DHT22;15976;47.938;7.758;2023-10-09T11:18:15;25.70;43.50
28845;DHT22;15976;47.938;7.758;2023-10-09T11:20:57;25.70;43.60
28845;DHT22;15976;47.938;7.758;2023-10-09T11:23:31;25.70;43.50
28845;DHT22;15976;47.938;7.758;2023-10-09T11:26:03;25.90;43.80
28845;DHT22;15976;47.938;7.758;2023-10-09T11:29:11;26.00;43.60
28845;DHT22;15976;47.938;7.758;2023-10-09T11:32:06;26.20;42.70
28845;DHT22;15976;47.938;7.758;2023-10-09T11:34:33;26.30;42.60
28845;DHT22;15976;47.938;7.758;2023-10-09T11:39:39;26.70;42.30
28845;DHT22;15976;47.938;7.758;2023-10-09T11:42:27;26.70;42.00
28845;DHT22;15976;47.938;7.758;2023-10-09T11:45:07;26.80;42.10
28845;DHT22;15976;47.938;7.758;2023-10-09T11:47:47;26.80;41.90
28845;DHT22;15976;47.938;7.758;2023-10-09T11:50:41;26.80;42.60
28845;DHT22;15976;47.938;7.758;2023-10-09T11:53:11;26.60;41.80
28845;DHT22;15976;47.938;7.758;2023-10-09T11:55:51;26.60;42.20
28845;DHT22;15976;47.938;7.758;2023-10-09T11:58:21;26.70;42.30
28845;DHT22;15976;47.938;7.758;2023-10-09T12:03:33;26.90;42.20
28845;DHT22;15976;47.938;7.758;2023-10-09T12:06:02;26.80;42.10
28845;DHT22;15976;47.938;7.758;2023-10-09T12:08:33;26.70;42.30
28845;DHT22;15976;47.938;7.758;2023-10-09T12:11:02;26.70;42.40
28845;DHT22;15976;47.938;7.758;2023-10-09T12:13:36;26.80;42.60
28845;DHT22;15976;47.938;7.758;2023-10-09T12:16:05;26.80;43.60
28845;DHT22;15976;47.938;7.758;2023-10-09T12:18:37;26.70;43.00
28845;DHT22;15976;47.938;7.758;2023-10-09T12:21:07;26.60;42.90
28845;DHT22;15976;47.938;7.758;2023-10-09T12:23:34;26.50;43.50
28845;DHT22;15976;47.938;7.758;2023-10-09T12:26:04;26.40;42.90
28845;DHT22;15976;47.938;7.758;2023-10-09T12:28:31;26.30;43.10
28845;DHT22;15976;47.938;7.758;2023-10-09T12:31:01;26.20;43.30
28845;DHT22;15976;47.938;7.758;2023-10-09T12:33:29;26.10;43.30
28845;DHT22;15976;47.938;7.758;2023-10-09T12:35:57;26.00;43.50
28845;DHT22;15976;47.938;7.758;2023-10-09T12:38:29;26.00;43.70
28845;DHT22;15976;47.938;7.758;2023-10-09T12:43:35;25.90;44.00
28845;DHT22;15976;47.938;7.758;2023-10-09T12:46:07;25.80;44.00
28845;DHT22;15976;47.938;7.758;2023-10-09T12:48:34;25.80;44.20
28845;DHT22;15976;47.938;7.758;2023-10-09T12:51:03;25.80;44.30
28845;DHT22;15976;47.938;7.758;2023-10-09T12:53:33;25.90;44.40
28845;DHT22;15976;47.938;7.758;2023-10-09T12:56:00;26.00;44.40
28845;DHT22;15976;47.938;7.758;2023-10-09T12:58:27;26.10;44.10
28845;DHT22;15976;47.938;7.758;2023-10-09T13:00:54;26.20;44.10
28845;DHT22;15976;47.938;7.758;2023-10-09T13:03:22;26.40;44.00
28845;DHT22;15976;47.938;7.758;2023-10-09T13:05:55;26.50;43.80
28845;DHT22;15976;47.938;7.758;2023-10-09T13:10:51;26.70;43.80
28845;DHT22;15976;47.938;7.758;2023-10-09T13:13:28;26.70;43.70
28845;DHT22;15976;47.938;7.758;2023-10-09T13:16:15;26.80;43.60
28845;DHT22;15976;47.938;7.758;2023-10-09T13:18:53;27.00;43.50
28845;DHT22;15976;47.938;7.758;2023-10-09T13:21:25;27.10;43.40
28845;DHT22;15976;47.938;7.758;2023-10-09T13:23:53;27.30;43.10
28845;DHT22;15976;47.938;7.758;2023-10-09T13:26:24;27.40;42.80
28845;DHT22;15976;47.938;7.758;2023-10-09T13:29:02;27.50;42.90
28845;DHT22;15976;47.938;7.758;2023-10-09T13:31:30;27.60;42.70
28845;DHT22;15976;47.938;7.758;2023-10-09T13:34:02;27.80;42.50
28845;DHT22;15976;47.938;7.758;2023-10-09T13:36:30;28.00;42.20
28845;DHT22;15976;47.938;7.758;2023-10-09T13:39:05;28.20;41.30
28845;DHT22;15976;47.938;7.758;2023-10-09T13:44:33;28.40;40.40
28845;DHT22;15976;47.938;7.758;2023-10-09T13:47:04;28.30;40.30
28845;DHT22;15976;47.938;7.758;2023-10-09T13:49:47;28.30;40.20
28845;DHT22;15976;47.938;7.758;2023-10-09T13:52:17;28.40;39.60
28845;DHT22;15976;47.938;7.758;2023-10-09T13:54:45;28.40;39.60
28845;DHT22;15976;47.938;7.758;2023-10-09T13:57:16;28.40;39.50
28845;DHT22;15976;47.938;7.758;2023-10-09T13:59:43;28.20;39.60
28845;DHT22;15976;47.938;7.758;2023-10-09T14:02:16;28.20;39.70
28845;DHT22;15976;47.938;7.758;2023-10-09T14:04:45;28.10;39.70
28845;DHT22;15976;47.938;7.758;2023-10-09T14:07:14;28.00;39.90
28845;DHT22;15976;47.938;7.758;2023-10-09T14:09:45;28.00;39.70
28845;DHT22;15976;47.938;7.758;2023-10-09T14:12:22;27.90;39.70
28845;DHT22;15976;47.938;7.758;2023-10-09T14:14:51;28.10;39.80
28845;DHT22;15976;47.938;7.758;2023-10-09T14:17:22;28.20;39.80
28845;DHT22;15976;47.938;7.758;2023-10-09T14:19:56;28.30;39.70
28845;DHT22;15976;47.938;7.758;2023-10-09T14:22:33;28.30;39.30
28845;DHT22;15976;47.938;7.758;2023-10-09T14:25:05;28.20;38.70
28845;DHT22;15976;47.938;7.758;2023-10-09T14:27:39;28.00;38.90
28845;DHT22;15976;47.938;7.758;2023-10-09T14:30:08;27.90;39.10
28845;DHT22;15976;47.938;7.758;2023-10-09T14:32:45;27.80;39.20
28845;DHT22;15976;47.938;7.758;2023-10-09T14:35:18;27.60;39.50
28845;DHT22;15976;47.938;7.758;2023-10-09T14:37:48;27.50;39.80
28845;DHT22;15976;47.938;7.758;2023-10-09T14:40:15;27.50;40.20
28845;DHT22;15976;47.938;7.758;2023-10-09T14:42:48;27.40;40.50
28845;DHT22;15976;47.938;7.758;2023-10-09T14:45:27;27.40;40.60
28845;DHT22;15976;47.938;7.758;2023-10-09T14:47:54;27.30;40.80
28845;DHT22;15976;47.938;7.758;2023-10-09T14:50:22;27.20;41.00
28845;DHT22;15976;47.938;7.758;2023-10-09T14:52:49;27.20;41.20
28845;DHT22;15976;47.938;7.758;2023-10-09T14:55:18;27.10;41.20
28845;DHT22;15976;47.938;7.758;2023-10-09T14:57:48;27.00;41.20
28845;DHT22;15976;47.938;7.758;2023-10-09T15:00:19;26.90;41.30
28845;DHT22;15976;47.938;7.758;2023-10-09T15:02:51;26.90;41.50
28845;DHT22;15976;47.938;7.758;2023-10-09T15:05:19;26.80;41.70
28845;DHT22;15976;47.938;7.758;2023-10-09T15:07:50;26.70;41.80
28845;DHT22;15976;47.938;7.758;2023-10-09T15:10:19;26.60;42.20
28845;DHT22;15976;47.938;7.758;2023-10-09T15:12:46;26.60;42.30
28845;DHT22;15976;47.938;7.758;2023-10-09T15:15:16;26.50;42.50
28845;DHT22;15976;47.938;7.758;2023-10-09T15:17:44;26.50;42.60
28845;DHT22;15976;47.938;7.758;2023-10-09T15:20:15;26.40;42.70
28845;DHT22;15976;47.938;7.758;2023-10-09T15:22:44;26.40;42.80
28845;DHT22;15976;47.938;7.758;2023-10-09T15:25:12;26.30;43.00
28845;DHT22;15976;47.938;7.758;2023-10-09T15:27:43;26.20;43.10
28845;DHT22;15976;47.938;7.758;2023-10-09T15:30:10;26.20;43.40
28845;DHT22;15976;47.938;7.758;2023-10-09T15:32:41;26.10;43.70
28845;DHT22;15976;47.938;7.758;2023-10-09T15:35:12;26.00;43.80
28845;DHT22;15976;47.938;7.758;2023-10-09T15:37:42;25.90;43.90
28845;DHT22;15976;47.938;7.758;2023-10-09T15:40:10;25.80;44.30
28845;DHT22;15976;47.938;7.758;2023-10-09T15:42:45;25.70;45.20
28845;DHT22;15976;47.938;7.758;2023-10-09T15:45:17;25.60;46.50
28845;DHT22;15976;47.938;7.758;2023-10-09T15:47:50;25.50;47.50
28845;DHT22;15976;47.938;7.758;2023-10-09T15:50:19;25.30;48.10
28845;DHT22;15976;47.938;7.758;2023-10-09T15:52:46;25.20;48.00
28845;DHT22;15976;47.938;7.758;2023-10-09T15:55:16;25.10;48.10
28845;DHT22;15976;47.938;7.758;2023-10-09T15:57:48;25.00;48.50
28845;DHT22;15976;47.938;7.758;2023-10-09T16:00:22;24.90;48.40
28845;DHT22;15976;47.938;7.758;2023-10-09T16:02:55;24.80;48.70
28845;DHT22;15976;47.938;7.758;2023-10-09T16:05:22;24.60;48.80
28845;DHT22;15976;47.938;7.758;2023-10-09T16:07:54;24.50;49.00
28845;DHT22;15976;47.938;7.758;2023-10-09T16:10:22;24.40;49.80
28845;DHT22;15976;47.938;7.758;2023-10-09T16:12:49;24.30;50.70
28845;DHT22;15976;47.938;7.758;2023-10-09T16:15:18;24.10;51.10
28845;DHT22;15976;47.938;7.758;2023-10-09T16:17:47;24.00;51.40
28845;DHT22;15976;47.938;7.758;2023-10-09T16:20:26;23.90;51.20
28845;DHT22;15976;47.938;7.758;2023-10-09T16:22:53;23.80;51.20
28845;DHT22;15976;47.938;7.758;2023-10-09T16:25:20;23.70;51.20
28845;DHT22;15976;47.938;7.758;2023-10-09T16:27:51;23.60;51.30
28845;DHT22;15976;47.938;7.758;2023-10-09T16:30:19;23.50;51.40
28845;DHT22;15976;47.938;7.758;2023-10-09T16:32:48;23.50;51.40
28845;DHT22;15976;47.938;7.758;2023-10-09T16:35:16;23.40;51.70
28845;DHT22;15976;47.938;7.758;2023-10-09T16:37:43;23.30;52.10
28845;DHT22;15976;47.938;7.758;2023-10-09T16:40:11;23.20;52.00
28845;DHT22;15976;47.938;7.758;2023-10-09T16:42:40;23.10;51.90
28845;DHT22;15976;47.938;7.758;2023-10-09T16:45:10;23.00;52.10
28845;DHT22;15976;47.938;7.758;2023-10-09T16:47:49;22.90;52.20
28845;DHT22;15976;47.938;7.758;2023-10-09T16:50:25;22.80;52.20
28845;DHT22;15976;47.938;7.758;2023-10-09T16:52:55;22.80;52.30